Time;durP1;ratioP1;P1;durP2;ratioP2;P2;SDS_P1;SDS_P2;PMS_P1;PMS_P2;Temp;Humidity;BMP_temperature;BMP_pressure;BME280_temperature;BME280_humidity;BME280_pressure;Samples;Min_cycle;Max_cycle;Signal;HPM_P1;HPM_P2
2022/07/18 00:01:47;;;;;;;;;;;23.10;56.40;;;;;;5041813;28;20006;-74
2022/07/18 00:04:15;;;;;;;;;;;23.00;56.40;;;;;;5041701;28;20327;-75
2022/07/18 00:06:42;;;;;;;;;;;23.00;56.40;;;;;;5039536;28;19924;-74
2022/07/18 00:09:09;;;;;;;;;;;22.90;56.40;;;;;;5041012;28;20036;-75
2022/07/18 00:11:36;;;;;;;;;;;22.90;56.50;;;;;;5041166;28;20137;-75
2022/07/18 00:14:03;;;;;;;;;;;22.80;56.40;;;;;;5034581;28;20019;-74
2022/07/18 00:16:29;;;;;;;;;;;22.80;56.30;;;;;;5043038;28;20361;-74
2022/07/18 00:18:58;;;;;;;;;;;22.70;56.20;;;;;;5047406;28;19929;-74
2022/07/18 00:21:26;;;;;;;;;;;22.70;56.20;;;;;;5038975;28;19932;-75
2022/07/18 00:23:53;;;;;;;;;;;22.70;56.20;;;;;;5023106;28;20438;-74
2022/07/18 00:26:20;;;;;;;;;;;22.60;56.20;;;;;;5038740;28;19971;-74
2022/07/18 00:28:49;;;;;;;;;;;22.60;56.20;;;;;;5035938;28;19933;-73
2022/07/18 00:31:15;;;;;;;;;;;22.50;56.20;;;;;;5025002;28;19944;-74
2022/07/18 00:33:42;;;;;;;;;;;22.50;56.20;;;;;;5040193;28;20016;-75
2022/07/18 00:36:09;;;;;;;;;;;22.50;56.20;;;;;;5040059;28;19929;-73
2022/07/18 00:38:38;;;;;;;;;;;22.40;56.10;;;;;;5039289;28;19933;-74
2022/07/18 00:41:05;;;;;;;;;;;22.40;56.10;;;;;;5032488;28;20392;-74
2022/07/18 00:43:31;;;;;;;;;;;22.40;56.10;;;;;;5043208;28;19929;-75
2022/07/18 00:45:58;;;;;;;;;;;22.30;56.00;;;;;;5042018;28;20382;-74
2022/07/18 00:48:25;;;;;;;;;;;22.30;56.00;;;;;;5038500;28;20306;-74
2022/07/18 00:50:52;;;;;;;;;;;22.20;55.90;;;;;;5037959;28;20023;-74
2022/07/18 00:53:19;;;;;;;;;;;22.10;56.00;;;;;;5038084;28;19959;-74
2022/07/18 00:55:47;;;;;;;;;;;22.10;55.90;;;;;;5040739;28;20566;-74
2022/07/18 00:58:14;;;;;;;;;;;22.10;55.90;;;;;;5037942;28;19935;-73
2022/07/18 01:03:26;;;;;;;;;;;22.00;56.10;;;;;;5023193;28;19924;-74
2022/07/18 01:05:53;;;;;;;;;;;21.90;56.20;;;;;;5040628;28;19991;-74
2022/07/18 01:08:20;;;;;;;;;;;21.80;56.30;;;;;;5015912;28;19937;-73
2022/07/18 01:10:50;;;;;;;;;;;21.80;56.40;;;;;;5016690;28;21470;-74
2022/07/18 01:13:16;;;;;;;;;;;21.80;56.40;;;;;;5040377;28;19948;-74
2022/07/18 01:15:43;;;;;;;;;;;21.70;56.60;;;;;;5036799;28;20420;-74
2022/07/18 01:18:10;;;;;;;;;;;21.70;56.70;;;;;;5037021;28;19964;-74
2022/07/18 01:20:38;;;;;;;;;;;21.60;56.60;;;;;;5037328;28;19933;-74
2022/07/18 01:23:05;;;;;;;;;;;21.60;56.50;;;;;;5042419;28;19931;-74
2022/07/18 01:25:33;;;;;;;;;;;21.50;56.30;;;;;;5031342;28;20359;-75
2022/07/18 01:27:59;;;;;;;;;;;21.50;56.50;;;;;;5027094;28;19932;-74
2022/07/18 01:30:29;;;;;;;;;;;21.50;56.00;;;;;;5023929;28;19998;-73
2022/07/18 01:32:57;;;;;;;;;;;21.40;56.40;;;;;;5044025;28;20402;-74
2022/07/18 01:35:24;;;;;;;;;;;21.40;57.10;;;;;;5017664;28;19925;-74
2022/07/18 01:37:53;;;;;;;;;;;21.40;56.60;;;;;;5029943;28;19926;-74
2022/07/18 01:40:20;;;;;;;;;;;21.30;56.60;;;;;;5035613;28;19929;-74
2022/07/18 01:45:34;;;;;;;;;;;21.30;56.70;;;;;;5041044;28;19928;-74
2022/07/18 01:48:01;;;;;;;;;;;21.20;56.50;;;;;;5036599;28;19972;-74
2022/07/18 01:50:28;;;;;;;;;;;21.20;56.40;;;;;;5037678;28;19925;-74
2022/07/18 01:52:56;;;;;;;;;;;21.10;56.20;;;;;;5041139;28;19928;-73
2022/07/18 01:55:23;;;;;;;;;;;21.10;56.30;;;;;;5039714;28;19930;-74
2022/07/18 01:57:50;;;;;;;;;;;21.00;56.50;;;;;;5039075;28;19929;-75
2022/07/18 02:00:17;;;;;;;;;;;21.00;56.60;;;;;;5040572;28;19928;-75
2022/07/18 02:02:43;;;;;;;;;;;21.00;56.60;;;;;;5042591;28;20392;-74
2022/07/18 02:05:10;;;;;;;;;;;21.00;56.60;;;;;;5021374;28;19936;-74
2022/07/18 02:07:38;;;;;;;;;;;20.90;56.70;;;;;;5034326;28;19925;-74
2022/07/18 02:10:07;;;;;;;;;;;20.90;56.80;;;;;;5043363;28;19928;-75
2022/07/18 02:12:34;;;;;;;;;;;20.90;56.90;;;;;;5035040;28;20344;-75
2022/07/18 02:15:01;;;;;;;;;;;20.80;56.80;;;;;;5041951;28;20027;-73
2022/07/18 02:17:28;;;;;;;;;;;20.80;56.90;;;;;;5041360;28;19929;-74
2022/07/18 02:19:55;;;;;;;;;;;20.80;56.90;;;;;;5036090;28;20350;-75
2022/07/18 02:22:23;;;;;;;;;;;20.70;56.90;;;;;;5041355;28;20448;-74
2022/07/18 02:24:50;;;;;;;;;;;20.70;56.90;;;;;;5013959;28;19929;-74
2022/07/18 02:27:19;;;;;;;;;;;20.60;56.90;;;;;;5020904;28;19925;-75
2022/07/18 02:29:46;;;;;;;;;;;20.60;57.00;;;;;;5037636;28;20411;-75
2022/07/18 02:32:13;;;;;;;;;;;20.60;57.10;;;;;;5039913;28;19929;-75
2022/07/18 02:34:40;;;;;;;;;;;20.50;57.10;;;;;;5021415;28;19929;-74
2022/07/18 02:37:07;;;;;;;;;;;20.50;57.10;;;;;;5036011;28;19933;-75
2022/07/18 02:39:33;;;;;;;;;;;20.50;57.30;;;;;;5034768;28;20654;-75
2022/07/18 02:42:00;;;;;;;;;;;20.40;57.20;;;;;;5037574;28;20383;-76
2022/07/18 02:44:28;;;;;;;;;;;20.40;57.20;;;;;;5036398;28;19933;-77
2022/07/18 02:46:55;;;;;;;;;;;20.30;57.20;;;;;;5042495;28;19925;-77
2022/07/18 02:49:28;;;;;;;;;;;20.30;57.10;;;;;;5044084;28;20336;-77
2022/07/18 02:51:58;;;;;;;;;;;20.30;57.30;;;;;;5044232;28;19982;-76
2022/07/18 02:54:26;;;;;;;;;;;20.20;57.20;;;;;;5041040;28;19929;-77
2022/07/18 02:56:53;;;;;;;;;;;20.20;57.10;;;;;;5038593;28;19933;-77
2022/07/18 02:59:20;;;;;;;;;;;20.10;57.30;;;;;;5043475;28;20457;-76
2022/07/18 03:01:49;;;;;;;;;;;20.10;57.40;;;;;;5046086;28;20403;-76
2022/07/18 03:04:16;;;;;;;;;;;20.00;57.20;;;;;;5038328;28;20306;-76
2022/07/18 03:06:43;;;;;;;;;;;20.00;57.40;;;;;;5041604;28;20020;-76
2022/07/18 03:09:10;;;;;;;;;;;20.00;57.60;;;;;;5100996;22;19940;-75
2022/07/18 03:11:37;;;;;;;;;;;19.90;57.40;;;;;;5083971;28;19932;-75
2022/07/18 03:14:04;;;;;;;;;;;19.90;57.40;;;;;;5092875;28;19934;-75
2022/07/18 03:16:30;;;;;;;;;;;19.90;57.40;;;;;;5090385;28;19999;-75
2022/07/18 03:18:59;;;;;;;;;;;19.80;57.30;;;;;;5078022;28;20341;-74
2022/07/18 03:21:26;;;;;;;;;;;19.80;57.40;;;;;;5103460;27;19932;-74
2022/07/18 03:23:53;;;;;;;;;;;19.70;57.30;;;;;;5089707;28;20435;-75
2022/07/18 03:26:20;;;;;;;;;;;19.70;57.40;;;;;;5085105;28;19924;-76
2022/07/18 03:28:47;;;;;;;;;;;19.70;57.30;;;;;;5095355;28;19959;-75
2022/07/18 03:31:14;;;;;;;;;;;19.60;57.30;;;;;;5093102;28;19932;-75
2022/07/18 03:33:41;;;;;;;;;;;19.60;57.50;;;;;;5092760;28;20327;-75
2022/07/18 03:36:10;;;;;;;;;;;19.50;57.50;;;;;;5091693;28;20447;-75
2022/07/18 03:38:36;;;;;;;;;;;19.50;57.60;;;;;;5092829;28;19932;-75
2022/07/18 03:41:04;;;;;;;;;;;19.50;57.50;;;;;;5093200;28;19932;-75
2022/07/18 03:43:31;;;;;;;;;;;19.40;57.60;;;;;;5088088;28;19923;-75
2022/07/18 03:45:57;;;;;;;;;;;19.40;57.70;;;;;;5098150;28;19924;-75
2022/07/18 03:48:24;;;;;;;;;;;19.40;57.70;;;;;;5093274;28;19996;-74
2022/07/18 03:50:51;;;;;;;;;;;19.30;57.70;;;;;;5097681;28;19963;-76
2022/07/18 03:53:19;;;;;;;;;;;19.30;57.60;;;;;;5084774;28;20361;-75
2022/07/18 03:55:46;;;;;;;;;;;19.30;57.70;;;;;;5091186;28;19924;-75
2022/07/18 03:58:13;;;;;;;;;;;19.20;57.60;;;;;;5092464;28;20393;-74
2022/07/18 04:00:40;;;;;;;;;;;19.20;57.80;;;;;;5086930;28;19982;-74
2022/07/18 04:03:07;;;;;;;;;;;19.10;57.70;;;;;;5088535;28;20429;-77
2022/07/18 04:05:34;;;;;;;;;;;19.00;57.70;;;;;;5095493;28;20441;-75
2022/07/18 04:08:00;;;;;;;;;;;19.10;57.90;;;;;;5090023;28;20196;-74
2022/07/18 04:10:29;;;;;;;;;;;19.00;57.80;;;;;;5081999;28;19928;-74
2022/07/18 04:12:56;;;;;;;;;;;19.00;57.90;;;;;;5087182;28;19924;-75
2022/07/18 04:15:24;;;;;;;;;;;19.00;58.00;;;;;;5088796;28;19928;-74
2022/07/18 04:17:51;;;;;;;;;;;19.00;57.90;;;;;;5086974;28;19976;-74
2022/07/18 04:20:19;;;;;;;;;;;19.00;57.80;;;;;;5085667;28;20558;-76
2022/07/18 04:22:47;;;;;;;;;;;18.90;57.80;;;;;;5091529;28;19959;-76
2022/07/18 04:25:14;;;;;;;;;;;18.90;57.80;;;;;;5094743;28;19960;-77
2022/07/18 04:27:43;;;;;;;;;;;18.90;57.90;;;;;;5092363;28;20023;-76
2022/07/18 04:30:10;;;;;;;;;;;18.90;57.80;;;;;;5095583;28;19932;-76
2022/07/18 04:32:37;;;;;;;;;;;18.90;57.90;;;;;;5090343;28;19934;-74
2022/07/18 04:35:04;;;;;;;;;;;18.80;57.80;;;;;;5086881;28;19924;-75
2022/07/18 04:37:32;;;;;;;;;;;18.80;57.70;;;;;;5087080;28;19970;-75
2022/07/18 04:39:58;;;;;;;;;;;18.80;57.80;;;;;;5084101;28;20192;-75
2022/07/18 04:42:25;;;;;;;;;;;18.80;57.80;;;;;;5100715;27;19938;-75
2022/07/18 04:44:54;;;;;;;;;;;18.70;57.80;;;;;;5093939;28;19928;-74
2022/07/18 04:47:21;;;;;;;;;;;18.60;57.70;;;;;;5084062;28;19955;-74
2022/07/18 04:49:48;;;;;;;;;;;18.60;57.80;;;;;;5089393;28;20023;-74
2022/07/18 04:52:15;;;;;;;;;;;18.50;57.70;;;;;;5086814;28;19924;-73
2022/07/18 04:54:42;;;;;;;;;;;18.50;58.00;;;;;;5084183;28;19993;-74
2022/07/18 04:57:11;;;;;;;;;;;18.40;58.10;;;;;;5087043;28;19928;-74
2022/07/18 04:59:38;;;;;;;;;;;18.40;58.40;;;;;;5092691;28;19959;-74
2022/07/18 05:02:06;;;;;;;;;;;18.30;58.30;;;;;;5080857;28;20204;-74
2022/07/18 05:04:33;;;;;;;;;;;18.30;58.20;;;;;;5083261;28;19949;-74
2022/07/18 05:06:59;;;;;;;;;;;18.30;58.20;;;;;;5088608;28;20007;-75
2022/07/18 05:09:26;;;;;;;;;;;18.20;58.40;;;;;;5082099;28;20018;-73
2022/07/18 05:11:53;;;;;;;;;;;18.20;58.60;;;;;;5081757;28;19924;-74
2022/07/18 05:14:21;;;;;;;;;;;18.20;58.70;;;;;;5086779;28;19939;-73
2022/07/18 05:16:48;;;;;;;;;;;18.10;58.70;;;;;;5096666;27;20019;-75
2022/07/18 05:19:16;;;;;;;;;;;18.10;58.80;;;;;;5082289;28;20331;-76
2022/07/18 05:21:43;;;;;;;;;;;18.10;59.00;;;;;;5086984;28;20319;-74
2022/07/18 05:24:10;;;;;;;;;;;18.10;59.90;;;;;;5086304;28;20455;-75
2022/07/18 05:26:37;;;;;;;;;;;18.00;59.40;;;;;;5086087;28;20027;-74
2022/07/18 05:29:04;;;;;;;;;;;18.00;59.50;;;;;;5091168;28;19935;-76
2022/07/18 05:31:30;;;;;;;;;;;18.00;59.60;;;;;;5096943;28;20237;-76
2022/07/18 05:33:57;;;;;;;;;;;18.00;59.80;;;;;;5092402;28;19952;-76
2022/07/18 05:36:26;;;;;;;;;;;18.00;60.00;;;;;;5088416;28;19928;-76
2022/07/18 05:38:52;;;;;;;;;;;18.00;60.10;;;;;;5091918;28;19928;-76
2022/07/18 05:41:19;;;;;;;;;;;18.00;60.20;;;;;;5093923;28;19967;-76
2022/07/18 05:43:46;;;;;;;;;;;18.00;60.40;;;;;;5091824;28;20459;-76
2022/07/18 05:46:13;;;;;;;;;;;18.00;61.20;;;;;;5083318;28;19943;-76
2022/07/18 05:48:40;;;;;;;;;;;18.10;60.70;;;;;;5089231;28;19928;-76
2022/07/18 05:51:08;;;;;;;;;;;18.10;60.80;;;;;;5084987;28;19971;-76
2022/07/18 05:53:36;;;;;;;;;;;18.10;60.90;;;;;;5090570;28;20378;-76
2022/07/18 05:56:04;;;;;;;;;;;18.10;60.90;;;;;;5082337;28;19932;-76
2022/07/18 05:58:31;;;;;;;;;;;18.10;61.00;;;;;;5083385;28;19931;-77
2022/07/18 06:00:57;;;;;;;;;;;18.10;61.10;;;;;;5081917;28;19934;-76
2022/07/18 06:03:24;;;;;;;;;;;18.20;61.60;;;;;;5093553;28;20347;-76
2022/07/18 06:05:51;;;;;;;;;;;18.20;62.10;;;;;;5088000;28;19947;-76
2022/07/18 06:08:18;;;;;;;;;;;18.20;61.70;;;;;;5092010;28;19932;-76
2022/07/18 06:10:46;;;;;;;;;;;18.20;61.70;;;;;;5089927;28;20374;-76
2022/07/18 06:13:13;;;;;;;;;;;18.30;61.80;;;;;;5092498;28;20038;-76
2022/07/18 06:15:40;;;;;;;;;;;18.30;61.80;;;;;;5095026;28;20037;-75
2022/07/18 06:18:06;;;;;;;;;;;18.30;61.80;;;;;;5092395;28;20408;-76
2022/07/18 06:20:33;;;;;;;;;;;18.30;61.70;;;;;;5092100;28;19936;-77
2022/07/18 06:23:00;;;;;;;;;;;18.30;61.70;;;;;;5089892;28;19956;-76
2022/07/18 06:25:27;;;;;;;;;;;18.40;61.80;;;;;;5094805;28;20382;-76
2022/07/18 06:27:55;;;;;;;;;;;18.40;61.80;;;;;;5085653;28;19981;-76
2022/07/18 06:30:23;;;;;;;;;;;18.40;61.90;;;;;;5088168;28;19986;-76
2022/07/18 06:32:49;;;;;;;;;;;18.40;61.90;;;;;;5087238;28;20032;-77
2022/07/18 06:35:16;;;;;;;;;;;18.40;62.00;;;;;;5091979;28;19944;-76
2022/07/18 06:37:43;;;;;;;;;;;18.50;62.20;;;;;;5091178;28;19977;-76
2022/07/18 06:40:11;;;;;;;;;;;18.50;62.10;;;;;;5088319;28;19931;-77
2022/07/18 06:42:38;;;;;;;;;;;18.50;62.10;;;;;;5082660;28;19932;-77
2022/07/18 06:45:07;;;;;;;;;;;18.50;62.10;;;;;;5091939;28;19981;-76
2022/07/18 06:47:34;;;;;;;;;;;18.50;62.10;;;;;;5089940;28;19924;-76
2022/07/18 06:50:00;;;;;;;;;;;18.60;62.30;;;;;;5097165;28;19924;-76
2022/07/18 06:52:27;;;;;;;;;;;18.60;62.30;;;;;;5092110;28;20022;-77
2022/07/18 06:54:54;;;;;;;;;;;18.60;62.30;;;;;;5100074;28;19931;-76
2022/07/18 06:57:21;;;;;;;;;;;18.60;62.20;;;;;;5091114;28;20467;-76
2022/07/18 06:59:48;;;;;;;;;;;18.60;62.90;;;;;;5089162;28;19928;-77
2022/07/18 07:02:16;;;;;;;;;;;18.70;62.30;;;;;;5093896;28;19973;-76
2022/07/18 07:04:43;;;;;;;;;;;18.70;62.30;;;;;;5094260;28;19949;-76
2022/07/18 07:07:09;;;;;;;;;;;18.70;62.30;;;;;;5088421;28;19928;-76
2022/07/18 07:09:36;;;;;;;;;;;18.80;62.30;;;;;;5092298;28;19934;-76
2022/07/18 07:12:03;;;;;;;;;;;18.80;62.30;;;;;;5110154;27;19932;-77
2022/07/18 07:14:30;;;;;;;;;;;18.80;62.30;;;;;;5085549;28;19986;-77
2022/07/18 07:16:57;;;;;;;;;;;18.80;62.40;;;;;;5092957;28;19938;-76
2022/07/18 07:19:25;;;;;;;;;;;18.90;62.50;;;;;;5112733;27;20011;-76
2022/07/18 07:21:52;;;;;;;;;;;18.90;62.50;;;;;;5093461;28;20337;-77
2022/07/18 07:24:19;;;;;;;;;;;18.90;62.50;;;;;;5102820;28;19932;-77
2022/07/18 07:26:46;;;;;;;;;;;19.00;62.60;;;;;;5107035;27;19981;-76
2022/07/18 07:29:13;;;;;;;;;;;19.00;62.60;;;;;;5097366;28;20401;-76
2022/07/18 07:31:39;;;;;;;;;;;19.00;62.60;;;;;;5095879;28;19928;-77
2022/07/18 07:34:06;;;;;;;;;;;19.10;62.80;;;;;;5090647;28;19927;-77
2022/07/18 07:36:35;;;;;;;;;;;19.20;62.90;;;;;;5094330;28;19951;-77
2022/07/18 07:39:01;;;;;;;;;;;19.20;62.90;;;;;;5097098;28;19928;-76
2022/07/18 07:41:28;;;;;;;;;;;19.20;62.90;;;;;;5094661;28;20439;-77
2022/07/18 07:43:55;;;;;;;;;;;19.30;63.00;;;;;;5089317;28;19935;-77
2022/07/18 07:46:22;;;;;;;;;;;19.30;63.10;;;;;;5099958;28;19977;-76
2022/07/18 07:48:49;;;;;;;;;;;19.30;63.10;;;;;;5094595;28;19981;-76
2022/07/18 07:51:16;;;;;;;;;;;19.30;63.00;;;;;;5096055;28;20037;-76
2022/07/18 07:53:44;;;;;;;;;;;19.30;63.10;;;;;;5095478;28;20014;-76
2022/07/18 07:56:11;;;;;;;;;;;19.40;63.20;;;;;;5100179;28;20015;-77
2022/07/18 07:58:38;;;;;;;;;;;19.40;63.20;;;;;;5095434;28;20438;-77
2022/07/18 08:01:05;;;;;;;;;;;19.40;63.20;;;;;;5093122;28;19928;-77
2022/07/18 08:03:32;;;;;;;;;;;19.40;63.20;;;;;;5095687;28;19932;-77
2022/07/18 08:05:59;;;;;;;;;;;19.50;63.30;;;;;;5093133;28;19924;-76
2022/07/18 08:08:26;;;;;;;;;;;19.50;63.40;;;;;;5093858;28;19924;-76
2022/07/18 08:10:54;;;;;;;;;;;19.50;63.30;;;;;;5084936;28;19983;-76
2022/07/18 08:13:21;;;;;;;;;;;19.50;63.30;;;;;;5097705;28;19928;-76
2022/07/18 08:15:48;;;;;;;;;;;19.60;63.30;;;;;;5098775;28;19924;-76
2022/07/18 08:18:15;;;;;;;;;;;19.60;63.40;;;;;;5087228;28;19932;-76
2022/07/18 08:20:41;;;;;;;;;;;19.60;63.30;;;;;;5093004;28;20007;-76
2022/07/18 08:23:09;;;;;;;;;;;19.60;63.40;;;;;;5091106;28;19924;-77
2022/07/18 08:25:37;;;;;;;;;;;19.60;63.40;;;;;;5092543;28;20038;-76
2022/07/18 08:28:06;;;;;;;;;;;19.70;64.20;;;;;;5095510;28;19927;-77
2022/07/18 08:30:33;;;;;;;;;;;19.70;63.50;;;;;;5097198;28;19932;-76
2022/07/18 08:33:00;;;;;;;;;;;19.70;63.50;;;;;;5094364;28;20370;-77
2022/07/18 08:35:27;;;;;;;;;;;19.80;63.60;;;;;;5085856;28;19932;-76
2022/07/18 08:37:54;;;;;;;;;;;19.70;63.40;;;;;;5092093;28;19931;-76
2022/07/18 08:40:21;;;;;;;;;;;19.80;63.60;;;;;;5091205;28;20268;-76
2022/07/18 08:42:50;;;;;;;;;;;19.80;63.50;;;;;;5103627;28;19971;-76
2022/07/18 08:45:20;;;;;;;;;;;19.80;63.20;;;;;;5088561;28;19931;-76
2022/07/18 08:47:47;;;;;;;;;;;19.90;63.30;;;;;;5092230;28;19924;-76
2022/07/18 08:50:14;;;;;;;;;;;19.90;63.10;;;;;;5096788;28;20026;-77
2022/07/18 08:52:41;;;;;;;;;;;19.90;63.10;;;;;;5090754;28;19934;-76
2022/07/18 08:55:11;;;;;;;;;;;19.90;63.10;;;;;;5084724;28;19928;-77
2022/07/18 08:57:38;;;;;;;;;;;19.90;63.10;;;;;;5092218;28;20014;-76
2022/07/18 09:00:05;;;;;;;;;;;19.90;63.10;;;;;;5095333;28;19967;-77
2022/07/18 09:02:33;;;;;;;;;;;20.00;63.20;;;;;;5087122;28;20401;-76
2022/07/18 09:05:01;;;;;;;;;;;20.00;63.00;;;;;;5097980;28;19939;-76
2022/07/18 09:07:29;;;;;;;;;;;20.00;63.00;;;;;;5096635;28;19932;-77
2022/07/18 09:09:57;;;;;;;;;;;20.00;63.00;;;;;;5085444;28;19946;-77
2022/07/18 09:12:24;;;;;;;;;;;20.10;62.80;;;;;;5089043;28;19927;-76
2022/07/18 09:14:51;;;;;;;;;;;20.10;62.40;;;;;;5091706;28;19928;-76
2022/07/18 09:17:19;;;;;;;;;;;20.10;62.20;;;;;;5095041;28;19932;-76
2022/07/18 09:19:59;;;;;;;;;;;20.20;62.20;;;;;;5086567;28;19928;-77
2022/07/18 09:22:27;;;;;;;;;;;20.20;62.30;;;;;;5089366;28;19924;-77
2022/07/18 09:24:56;;;;;;;;;;;20.20;62.40;;;;;;5101926;27;19924;-76
2022/07/18 09:27:24;;;;;;;;;;;20.20;62.20;;;;;;5089728;28;19977;-76
2022/07/18 09:30:07;;;;;;;;;;;20.30;61.70;;;;;;5099454;28;19968;-77
2022/07/18 09:32:34;;;;;;;;;;;20.80;58.70;;;;;;5093785;28;20294;-77
2022/07/18 09:35:06;;;;;;;;;;;21.40;57.00;;;;;;5100455;27;20244;-77
2022/07/18 09:37:33;;;;;;;;;;;21.70;56.60;;;;;;5077607;28;19924;-76
2022/07/18 09:40:14;;;;;;;;;;;21.50;57.30;;;;;;5085977;28;19927;-77
2022/07/18 09:42:41;;;;;;;;;;;21.30;58.00;;;;;;5084258;28;20006;-77
2022/07/18 09:45:08;;;;;;;;;;;21.00;58.50;;;;;;5086345;28;19960;-76
2022/07/18 09:47:48;;;;;;;;;;;20.90;59.00;;;;;;5084811;28;19924;-77
2022/07/18 09:50:22;;;;;;;;;;;20.90;59.80;;;;;;5093854;28;19950;-76
2022/07/18 09:53:07;;;;;;;;;;;20.80;59.90;;;;;;5086964;28;19932;-76
2022/07/18 09:55:34;;;;;;;;;;;20.80;60.30;;;;;;5090346;28;19943;-77
2022/07/18 09:58:02;;;;;;;;;;;20.80;60.60;;;;;;5092145;28;20395;-77
2022/07/18 10:00:30;;;;;;;;;;;20.80;60.70;;;;;;5090308;28;19928;-77
2022/07/18 10:02:58;;;;;;;;;;;20.80;60.80;;;;;;5091596;28;20166;-77
2022/07/18 10:05:28;;;;;;;;;;;20.80;60.90;;;;;;5086800;28;20030;-77
2022/07/18 10:07:55;;;;;;;;;;;20.80;61.00;;;;;;5111776;27;19924;-77
2022/07/18 10:10:24;;;;;;;;;;;20.80;60.90;;;;;;5089569;28;19924;-76
2022/07/18 10:12:52;;;;;;;;;;;20.80;60.80;;;;;;5092165;28;19928;-77
2022/07/18 10:15:20;;;;;;;;;;;20.90;60.70;;;;;;5081679;28;19932;-77
2022/07/18 10:17:47;;;;;;;;;;;20.90;60.90;;;;;;5087855;28;19977;-76
2022/07/18 10:20:14;;;;;;;;;;;20.90;61.00;;;;;;5091450;28;19931;-77
2022/07/18 10:22:46;;;;;;;;;;;20.90;60.90;;;;;;5086863;28;19924;-76
2022/07/18 10:25:13;;;;;;;;;;;20.90;60.80;;;;;;5092942;28;20441;-76
2022/07/18 10:27:49;;;;;;;;;;;20.90;60.70;;;;;;5096879;28;20352;-76
2022/07/18 10:30:19;;;;;;;;;;;21.00;61.00;;;;;;5088022;28;19924;-76
2022/07/18 10:32:46;;;;;;;;;;;21.00;60.90;;;;;;5091871;28;19993;-76
2022/07/18 10:35:16;;;;;;;;;;;21.00;60.90;;;;;;5093528;28;19931;-76
2022/07/18 10:37:44;;;;;;;;;;;21.00;60.90;;;;;;5091775;28;20393;-76
2022/07/18 10:40:25;;;;;;;;;;;21.00;60.80;;;;;;5088726;28;19981;-77
2022/07/18 10:43:11;;;;;;;;;;;21.10;60.80;;;;;;5091137;28;20394;-76
2022/07/18 10:45:43;;;;;;;;;;;21.10;60.80;;;;;;5087108;28;19924;-76
2022/07/18 10:48:29;;;;;;;;;;;21.10;60.50;;;;;;5094325;28;19967;-76
2022/07/18 10:51:02;;;;;;;;;;;21.10;60.70;;;;;;5087777;28;20314;-76
2022/07/18 10:53:44;;;;;;;;;;;21.20;60.90;;;;;;5094624;28;19960;-76
2022/07/18 10:56:12;;;;;;;;;;;21.20;60.80;;;;;;5089433;28;20049;-76
2022/07/18 10:58:40;;;;;;;;;;;21.20;60.60;;;;;;5089983;28;19940;-76
2022/07/18 11:01:11;;;;;;;;;;;21.30;60.60;;;;;;5088872;28;20189;-77
2022/07/18 11:03:38;;;;;;;;;;;21.30;60.20;;;;;;5091253;28;19924;-76
2022/07/18 11:06:05;;;;;;;;;;;21.30;60.20;;;;;;5089400;28;20033;-76
2022/07/18 11:08:33;;;;;;;;;;;21.30;60.30;;;;;;5092842;28;19928;-76
2022/07/18 11:11:20;;;;;;;;;;;21.30;60.20;;;;;;5095061;28;19928;-76
2022/07/18 11:13:52;;;;;;;;;;;21.30;60.10;;;;;;5093289;28;19923;-76
2022/07/18 11:16:20;;;;;;;;;;;21.40;60.40;;;;;;5089001;28;20022;-76
2022/07/18 11:19:06;;;;;;;;;;;21.40;60.40;;;;;;5094851;28;19931;-76
2022/07/18 11:21:33;;;;;;;;;;;21.40;60.30;;;;;;5093068;28;19932;-76
2022/07/18 11:24:01;;;;;;;;;;;21.50;60.40;;;;;;5088195;28;19985;-76
2022/07/18 11:26:28;;;;;;;;;;;21.50;60.10;;;;;;5098074;28;19959;-76
2022/07/18 11:29:00;;;;;;;;;;;21.50;60.00;;;;;;5091920;28;20679;-75
2022/07/18 11:31:28;;;;;;;;;;;21.60;59.70;;;;;;5094128;28;20006;-76
2022/07/18 11:33:55;;;;;;;;;;;21.60;59.80;;;;;;5087807;28;20390;-76
2022/07/18 11:36:23;;;;;;;;;;;21.60;59.80;;;;;;5108449;27;20002;-76
2022/07/18 11:38:51;;;;;;;;;;;21.70;59.60;;;;;;5092765;28;20417;-76
2022/07/18 11:41:18;;;;;;;;;;;21.70;59.40;;;;;;5084966;28;20706;-76
2022/07/18 11:43:45;;;;;;;;;;;21.70;59.20;;;;;;5094720;28;20360;-76
2022/07/18 11:46:14;;;;;;;;;;;21.70;59.50;;;;;;5085202;28;20468;-76
2022/07/18 11:48:44;;;;;;;;;;;21.80;60.00;;;;;;5085529;28;20352;-76
2022/07/18 11:51:12;;;;;;;;;;;21.80;60.20;;;;;;5078774;28;19977;-75
2022/07/18 11:53:43;;;;;;;;;;;21.80;60.10;;;;;;5098397;28;19924;-74
2022/07/18 11:56:10;;;;;;;;;;;21.80;59.70;;;;;;5085060;28;20018;-74
2022/07/18 11:58:37;;;;;;;;;;;21.90;60.00;;;;;;5100757;27;20430;-74
2022/07/18 12:01:05;;;;;;;;;;;21.90;60.00;;;;;;5093986;27;20018;-75
2022/07/18 12:03:34;;;;;;;;;;;22.00;59.70;;;;;;5088562;28;19936;-76
2022/07/18 12:06:10;;;;;;;;;;;22.10;59.70;;;;;;5082129;28;19932;-76
2022/07/18 12:08:39;;;;;;;;;;;22.10;59.40;;;;;;5098013;27;19924;-76
2022/07/18 12:11:08;;;;;;;;;;;22.10;59.70;;;;;;5085592;28;19932;-76
2022/07/18 12:13:45;;;;;;;;;;;22.10;60.20;;;;;;5075897;28;19934;-76
2022/07/18 12:16:25;;;;;;;;;;;22.20;60.50;;;;;;5093016;28;20010;-77
2022/07/18 12:18:54;;;;;;;;;;;22.20;60.50;;;;;;5087026;28;20398;-76
2022/07/18 12:21:21;;;;;;;;;;;22.30;60.50;;;;;;5088765;28;19924;-74
2022/07/18 12:23:48;;;;;;;;;;;22.30;60.40;;;;;;5094707;27;19973;-75
2022/07/18 12:26:29;;;;;;;;;;;22.40;61.50;;;;;;5096701;27;20416;-74
2022/07/18 12:29:06;;;;;;;;;;;22.40;61.00;;;;;;5095657;27;20298;-75
2022/07/18 12:31:37;;;;;;;;;;;22.50;61.30;;;;;;5087321;28;19978;-75
2022/07/18 12:34:12;;;;;;;;;;;22.50;61.40;;;;;;5085897;28;19928;-74
2022/07/18 12:36:39;;;;;;;;;;;;;;;;;;5083149;28;19925;-74
2022/07/18 12:39:06;;;;;;;;;;;22.60;61.20;;;;;;5077378;28;19939;-75
2022/07/18 12:41:33;;;;;;;;;;;22.70;61.70;;;;;;5086404;28;19968;-76
2022/07/18 12:44:00;;;;;;;;;;;22.80;61.60;;;;;;5098324;27;19954;-76
2022/07/18 12:46:27;;;;;;;;;;;22.90;61.40;;;;;;5088036;28;19963;-75
2022/07/18 12:48:54;;;;;;;;;;;;;;;;;;5084148;28;19928;-76
2022/07/18 12:51:30;;;;;;;;;;;23.00;61.10;;;;;;5071832;28;20013;-76
2022/07/18 12:53:57;;;;;;;;;;;23.00;61.40;;;;;;5073833;28;19928;-76
2022/07/18 12:56:24;;;;;;;;;;;23.30;59.30;;;;;;5074219;28;19932;-76
2022/07/18 12:58:50;;;;;;;;;;;23.40;59.70;;;;;;5080615;28;19958;-75
2022/07/18 13:01:17;;;;;;;;;;;23.40;60.00;;;;;;5073404;28;19928;-76
2022/07/18 13:03:44;;;;;;;;;;;23.40;60.20;;;;;;5085762;28;19953;-77
2022/07/18 13:06:11;;;;;;;;;;;23.50;60.90;;;;;;5081649;28;20018;-76
2022/07/18 13:08:39;;;;;;;;;;;23.50;60.90;;;;;;5076793;28;21406;-78
2022/07/18 13:11:06;;;;;;;;;;;23.60;61.20;;;;;;5081471;28;20013;-76
2022/07/18 13:13:33;;;;;;;;;;;23.60;60.90;;;;;;5080886;28;20227;-76
2022/07/18 13:16:00;;;;;;;;;;;23.90;56.20;;;;;;5077868;28;19924;-75
2022/07/18 13:18:26;;;;;;;;;;;24.20;57.50;;;;;;5073300;28;20436;-76
2022/07/18 13:20:53;;;;;;;;;;;24.30;56.50;;;;;;5086798;28;19950;-76
2022/07/18 13:23:21;;;;;;;;;;;24.30;58.10;;;;;;5089329;28;19932;-76
2022/07/18 13:25:49;;;;;;;;;;;24.20;58.90;;;;;;5088385;28;19947;-77
2022/07/18 13:28:16;;;;;;;;;;;24.30;59.80;;;;;;5080714;28;19978;-76
2022/07/18 13:30:42;;;;;;;;;;;24.20;60.00;;;;;;5081011;28;19967;-76
2022/07/18 13:33:09;;;;;;;;;;;24.30;60.40;;;;;;5085249;28;20405;-76
2022/07/18 13:35:36;;;;;;;;;;;24.30;60.40;;;;;;5090959;28;20008;-76
2022/07/18 13:38:03;;;;;;;;;;;24.40;60.70;;;;;;5087583;28;19932;-77
2022/07/18 13:40:30;;;;;;;;;;;24.40;61.00;;;;;;5080992;28;20367;-76
2022/07/18 13:42:58;;;;;;;;;;;24.50;63.40;;;;;;5090740;28;19931;-76
2022/07/18 13:45:25;;;;;;;;;;;24.60;61.20;;;;;;5089430;28;19924;-77
2022/07/18 13:47:52;;;;;;;;;;;24.70;61.50;;;;;;5088365;28;19957;-76
2022/07/18 13:50:19;;;;;;;;;;;24.70;61.60;;;;;;5085011;28;19924;-77
2022/07/18 13:52:46;;;;;;;;;;;24.80;63.70;;;;;;5090802;28;19940;-76
2022/07/18 13:55:12;;;;;;;;;;;24.80;60.20;;;;;;5091313;28;20132;-76
2022/07/18 13:57:39;;;;;;;;;;;24.90;61.00;;;;;;5082480;28;20416;-76
2022/07/18 14:00:09;;;;;;;;;;;25.00;61.30;;;;;;5082654;28;19930;-76
2022/07/18 14:02:36;;;;;;;;;;;25.00;61.40;;;;;;5089240;28;19924;-76
2022/07/18 14:05:03;;;;;;;;;;;25.10;61.40;;;;;;5099744;28;19933;-76
2022/07/18 14:07:30;;;;;;;;;;;;;;;;;;5089068;28;20352;-76
2022/07/18 14:09:57;;;;;;;;;;;25.20;60.90;;;;;;5086478;28;19960;-76
2022/07/18 14:12:23;;;;;;;;;;;25.30;61.30;;;;;;5086151;28;19988;-76
2022/07/18 14:14:50;;;;;;;;;;;25.30;61.30;;;;;;5090162;28;19981;-76
2022/07/18 14:17:18;;;;;;;;;;;25.40;61.40;;;;;;5089877;28;20005;-76
2022/07/18 14:19:45;;;;;;;;;;;25.50;60.80;;;;;;5091076;28;19924;-75
2022/07/18 14:22:12;;;;;;;;;;;25.50;61.00;;;;;;5094260;28;19927;-76
2022/07/18 14:24:39;;;;;;;;;;;25.60;61.10;;;;;;5085410;28;19932;-77
2022/07/18 14:27:06;;;;;;;;;;;25.70;61.50;;;;;;5085185;28;20401;-76
2022/07/18 14:29:32;;;;;;;;;;;25.80;61.50;;;;;;5088151;28;20398;-76